Main page
METAR-TAF:

METAR-TAF

Airports :

Ganja International Airport

Ganja, Azerbaijan

latitude: 40-44N, longitude: 046-24E, elevation: 330 m

Current weather observation

The report was made 38 minutes ago, at 20:00 UTC
Wind 6 kt from the South/Southwest
Temperature 14°C
Humidity 77%
Pressure 1017 hPa
Visibility 10 km or more
Scattered clouds at a height of 10000 ft

METAR: UBBG 192000Z 21006KT 9999 SCT100 14/10 Q1017 NOSIG

Time: 00:38 (20:38 UTC)

Forecast

The report was made 3 hours and 38 minutes ago, at 17:00 UTC
Forecast valid from 19 at 18 UTC to 20 at 18 UTC
Wind 4 kt from variable directions
Visibility 10 km or more
Scattered clouds at a height of 3000 ft
Broken clouds at a height of 6000 ft
Temporary
from 19 at 21 UTC to 20 at 03 UTC
Wind 8 kt from the West
Becoming
from 20 at 09 UTC to 20 at 11 UTC
Wind 8 kt from the East

TAF: UBBG 191700Z 1918/2018 VRB04KT 9999 SCT030 BKN060 TX17/2012Z TN10/2002Z TEMPO 1921/2003 26008KT BECMG 2009/2011 08008KT

Weather observations and forecasts of more than 4000 airports (METAR and TAF reports).

The available stations are represented by yellow and red dots on the map.

Hover mouse over dot to see the name of the station.

Then click to see weather observations and forecasts.

To change the map : click on the green buttons with a black cross to zoom in, on the green button with a dash to zoom out, or on the green arrows for adjacent maps.


METAR-TAF: